createdAt,value
2023-12-11T00:03:40.332Z,3.12
2023-12-11T00:09:01.557Z,2.93
2023-12-11T00:14:22.608Z,3.03
2023-12-11T00:19:43.745Z,2.80
2023-12-11T00:25:06.153Z,2.90
2023-12-11T00:30:27.743Z,2.92
2023-12-11T00:35:49.436Z,2.87
2023-12-11T00:41:10.690Z,2.91
2023-12-11T00:46:31.800Z,2.88
2023-12-11T00:51:54.558Z,2.90
2023-12-11T00:57:16.328Z,2.57
2023-12-11T01:02:37.508Z,2.75
2023-12-11T01:07:58.618Z,2.70
2023-12-11T01:13:19.481Z,2.72
2023-12-11T01:18:40.618Z,2.48
2023-12-11T01:24:01.939Z,2.31
2023-12-11T01:29:22.918Z,2.28
2023-12-11T01:34:43.951Z,2.51
2023-12-11T01:40:06.456Z,2.54
2023-12-11T01:45:27.438Z,2.63
2023-12-11T01:50:48.515Z,2.51
2023-12-11T01:56:10.573Z,2.70
2023-12-11T02:01:31.734Z,2.65
2023-12-11T02:06:52.662Z,2.66
2023-12-11T02:12:13.707Z,2.65
2023-12-11T02:17:34.805Z,2.79
2023-12-11T02:22:58.962Z,2.58
2023-12-11T02:28:19.837Z,2.69
2023-12-11T02:33:41.378Z,2.62
2023-12-11T02:39:02.804Z,2.80
2023-12-11T02:44:24.249Z,2.81
2023-12-11T02:49:45.890Z,2.42
2023-12-11T02:55:09.685Z,2.85
2023-12-11T03:00:32.426Z,2.68
2023-12-11T03:05:53.722Z,2.79
2023-12-11T03:11:14.892Z,2.76
2023-12-11T03:16:36.150Z,2.98
2023-12-11T03:21:57.249Z,3.03
2023-12-11T03:27:21.621Z,2.91
2023-12-11T03:32:43.024Z,3.05
2023-12-11T03:38:04.338Z,3.05
2023-12-11T03:43:25.327Z,2.77
2023-12-11T03:48:46.899Z,2.82
2023-12-11T03:54:08.495Z,2.82
2023-12-11T03:59:29.451Z,2.75
2023-12-11T04:04:50.718Z,3.05
2023-12-11T04:10:11.947Z,2.85
2023-12-11T04:15:34.391Z,2.72
2023-12-11T04:20:55.498Z,2.85
2023-12-11T04:26:16.558Z,2.94
2023-12-11T04:31:37.574Z,2.54
2023-12-11T04:36:58.659Z,2.78
2023-12-11T04:42:20.181Z,2.84
2023-12-11T04:47:41.349Z,2.87
2023-12-11T04:53:02.856Z,2.70
2023-12-11T04:58:23.997Z,2.89
2023-12-11T05:03:45.671Z,2.55
2023-12-11T05:09:07.776Z,2.80
2023-12-11T05:14:29.001Z,2.77
2023-12-11T05:19:50.325Z,2.68
2023-12-11T05:25:12.121Z,2.44
2023-12-11T05:30:33.384Z,2.82
2023-12-11T05:35:55.167Z,2.68
2023-12-11T05:41:17.195Z,2.52
2023-12-11T05:46:38.757Z,2.67
2023-12-11T05:52:00.508Z,2.83
2023-12-11T05:57:21.844Z,2.69
2023-12-11T06:02:43.147Z,2.64
2023-12-11T06:08:06.046Z,2.80
2023-12-11T06:13:27.560Z,2.80
2023-12-11T06:18:49.100Z,2.80
2023-12-11T06:24:10.646Z,2.98
2023-12-11T06:29:32.168Z,2.91
2023-12-11T06:34:53.580Z,2.70
2023-12-11T06:40:15.180Z,2.78
2023-12-11T06:45:38.700Z,2.79
2023-12-11T06:51:00.642Z,3.15
2023-12-11T06:56:22.447Z,3.20
2023-12-11T07:01:44.101Z,2.94
2023-12-11T07:07:05.623Z,2.96
2023-12-11T07:12:27.076Z,3.13
2023-12-11T07:17:48.431Z,3.17
2023-12-11T07:23:11.502Z,3.11
2023-12-11T07:28:32.775Z,3.34
2023-12-11T07:33:57.044Z,3.26
2023-12-11T07:39:18.992Z,3.34
2023-12-11T07:44:40.104Z,3.44
2023-12-11T07:50:02.125Z,3.59
2023-12-11T07:55:23.413Z,3.37
2023-12-11T08:00:45.143Z,3.81
2023-12-11T08:06:06.915Z,3.78
2023-12-11T08:11:31.208Z,4.06
2023-12-11T08:16:52.837Z,3.58
2023-12-11T08:22:15.006Z,4.03
2023-12-11T08:27:36.202Z,3.79
2023-12-11T08:32:57.799Z,4.14
2023-12-11T08:38:19.939Z,4.22
2023-12-11T08:43:41.607Z,4.07
2023-12-11T08:49:15.138Z,4.13
2023-12-11T08:54:58.292Z,3.98
2023-12-11T09:00:30.239Z,4.03
2023-12-11T09:05:58.056Z,4.15
2023-12-11T09:11:21.344Z,4.39
2023-12-11T09:16:46.375Z,4.52
2023-12-11T09:22:14.250Z,4.74
2023-12-11T09:27:40.171Z,5.14
2023-12-11T09:33:14.097Z,5.13
2023-12-11T09:38:35.740Z,5.44
2023-12-11T09:43:58.420Z,5.39
2023-12-11T09:49:20.236Z,5.82
2023-12-11T09:54:42.274Z,5.87
2023-12-11T10:00:07.083Z,6.06
2023-12-11T10:05:29.332Z,6.03
2023-12-11T10:10:50.487Z,6.04
2023-12-11T10:16:47.541Z,6.10
2023-12-11T10:22:08.644Z,6.12
2023-12-11T10:27:30.193Z,6.09
2023-12-11T10:32:51.762Z,6.03
2023-12-11T10:38:21.492Z,6.01
2023-12-11T10:49:07.854Z,6.04
2023-12-11T10:54:29.629Z,5.73
2023-12-11T10:59:52.202Z,5.80
2023-12-11T11:05:14.184Z,5.67
2023-12-11T11:10:50.779Z,6.03
2023-12-11T11:16:12.496Z,6.05
2023-12-11T11:21:33.926Z,5.86
2023-12-11T11:26:55.655Z,5.94
2023-12-11T11:32:19.244Z,5.95
2023-12-11T11:37:50.432Z,5.85
2023-12-11T11:43:12.334Z,6.13
2023-12-11T11:48:43.245Z,6.11
2023-12-11T11:54:06.780Z,6.15
2023-12-11T11:59:28.110Z,6.13
2023-12-11T12:04:49.639Z,6.05
2023-12-11T12:10:13.133Z,6.08
2023-12-11T12:15:45.929Z,5.89
2023-12-11T12:21:09.188Z,6.09
2023-12-11T12:26:32.535Z,6.08
2023-12-11T12:31:53.650Z,5.93
2023-12-11T12:37:15.312Z,6.31
2023-12-11T12:42:40.547Z,6.28
2023-12-11T12:48:05.812Z,5.86
2023-12-11T12:53:28.135Z,6.16
2023-12-11T12:58:50.325Z,6.34
2023-12-11T13:04:12.842Z,5.87
2023-12-11T13:09:36.005Z,6.07
2023-12-11T13:15:08.884Z,6.40
2023-12-11T13:20:35.198Z,6.44
2023-12-11T13:26:09.112Z,6.23
2023-12-11T13:31:30.627Z,6.33
2023-12-11T13:36:54.392Z,6.09
2023-12-11T13:42:16.374Z,6.37
2023-12-11T13:47:42.737Z,6.52
2023-12-11T13:53:04.836Z,6.01
2023-12-11T13:58:26.618Z,6.41
2023-12-11T14:03:56.007Z,5.88
2023-12-11T14:09:22.946Z,6.31
2023-12-11T14:14:44.194Z,6.27
2023-12-11T14:20:07.431Z,5.97
2023-12-11T14:25:29.703Z,6.20
2023-12-11T14:30:53.158Z,6.21
2023-12-11T14:36:19.300Z,6.17
2023-12-11T14:41:44.899Z,6.13
2023-12-11T14:47:07.610Z,5.78
2023-12-11T14:52:29.317Z,5.86
2023-12-11T14:57:51.610Z,5.95
2023-12-11T15:03:12.693Z,5.70
2023-12-11T15:08:34.890Z,5.80
2023-12-11T15:13:56.137Z,5.89
2023-12-11T15:19:17.926Z,5.73
2023-12-11T15:24:39.134Z,5.74
2023-12-11T15:30:00.301Z,5.31
2023-12-11T15:35:21.933Z,5.49
2023-12-11T15:40:44.013Z,5.53
2023-12-11T15:46:08.734Z,5.63
2023-12-11T15:51:31.076Z,5.48
2023-12-11T15:56:52.878Z,5.36
2023-12-11T16:02:14.120Z,5.35
2023-12-11T16:07:36.205Z,5.18
2023-12-11T16:12:57.774Z,5.46
2023-12-11T16:18:19.962Z,5.43
2023-12-11T16:23:41.483Z,5.19
2023-12-11T16:29:03.182Z,5.12
2023-12-11T16:34:24.809Z,5.47
2023-12-11T16:39:47.337Z,5.01
2023-12-11T16:45:11.924Z,5.15
2023-12-11T16:50:33.470Z,4.99
2023-12-11T16:55:55.384Z,5.48
2023-12-11T17:01:17.425Z,5.27
2023-12-11T17:06:38.860Z,5.01
2023-12-11T17:12:00.558Z,4.98
2023-12-11T17:17:22.613Z,5.13
2023-12-11T17:22:44.365Z,5.46
2023-12-11T17:28:06.172Z,4.98
2023-12-11T17:33:28.061Z,5.15
2023-12-11T17:38:57.596Z,5.13
2023-12-11T17:44:20.961Z,5.28
2023-12-11T17:49:42.871Z,5.31
2023-12-11T17:55:05.473Z,5.06
2023-12-11T18:00:27.087Z,5.25
2023-12-11T18:05:48.939Z,5.14
2023-12-11T18:11:10.072Z,4.92
2023-12-11T18:16:31.328Z,5.17
2023-12-11T18:21:53.149Z,5.12
2023-12-11T18:27:14.457Z,5.36
2023-12-11T18:32:39.211Z,5.12
2023-12-11T18:38:00.674Z,5.01
2023-12-11T18:43:23.813Z,5.16
2023-12-11T18:48:46.379Z,4.90
2023-12-11T18:54:08.290Z,5.09
2023-12-11T18:59:29.493Z,4.92
2023-12-11T19:04:53.674Z,4.80
2023-12-11T19:10:15.288Z,5.05
2023-12-11T19:15:36.820Z,4.76
2023-12-11T19:20:58.394Z,4.70
2023-12-11T19:26:19.596Z,5.09
2023-12-11T19:31:44.227Z,4.99
2023-12-11T19:37:05.837Z,4.89
2023-12-11T19:42:27.678Z,5.14
2023-12-11T19:47:48.905Z,4.85
2023-12-11T19:53:10.352Z,4.94
2023-12-11T19:58:32.883Z,4.96
2023-12-11T20:03:54.976Z,5.01
2023-12-11T20:09:16.696Z,5.09
2023-12-11T20:14:38.876Z,4.88
2023-12-11T20:20:06.057Z,4.94
2023-12-11T20:25:27.732Z,4.76
2023-12-11T20:30:49.194Z,4.77
2023-12-11T20:36:20.186Z,5.09
2023-12-11T20:41:41.517Z,4.76
2023-12-11T20:47:02.615Z,5.07
2023-12-11T20:52:24.165Z,5.08
2023-12-11T20:57:45.576Z,4.74
2023-12-11T21:03:06.924Z,5.06
2023-12-11T21:08:28.814Z,4.55
2023-12-11T21:13:50.974Z,4.61
2023-12-11T21:19:12.961Z,4.86
2023-12-11T21:24:36.997Z,4.89
2023-12-11T21:29:58.826Z,4.61
2023-12-11T21:35:20.426Z,4.61
2023-12-11T21:40:42.193Z,4.76
2023-12-11T21:46:03.998Z,4.78
2023-12-11T21:51:26.093Z,4.65
2023-12-11T21:56:47.879Z,4.82
2023-12-11T22:02:09.557Z,5.14
2023-12-11T22:07:31.734Z,4.74
2023-12-11T22:12:55.356Z,5.15
2023-12-11T22:18:17.802Z,5.15
2023-12-11T22:23:47.238Z,4.65
2023-12-11T22:29:16.234Z,4.99
2023-12-11T22:34:52.754Z,4.89
2023-12-11T22:40:32.023Z,4.95
2023-12-11T22:46:23.921Z,4.65
2023-12-11T23:17:39.067Z,4.49
2023-12-11T23:23:04.918Z,4.75
2023-12-11T23:28:26.339Z,4.56
2023-12-11T23:33:49.228Z,4.96
2023-12-11T23:39:16.426Z,4.60
2023-12-11T23:44:38.011Z,5.10
2023-12-11T23:50:05.678Z,5.15
2023-12-11T23:55:32.366Z,4.76
